LHSM Airport Information

Runway Information
Runway 16 Length 8202 ft width 197 ft
Elevation 408 ft Threshold 0 ft Heading 165
Runway 34 Length 8202 ft Width 197 ft
Elevation 399 ft Threshold 0 ft Heading 345
Runway 17R Length 3100 ft width 212 ft
Elevation 0 ft Threshold 0 ft Heading 167
Runway 35L Length 3100 ft Width 212 ft
Elevation 0 ft Threshold 0 ft Heading 347
Airport Frequencies
Type AFIS Name INFO Frequency 127.6 MHZ
Type TWR Name TWR Frequency 127.6 MHZ
Airport Navaids
Type NDB Name Sarmellek Frequency 428 KHZ
Airport Weather Information & NOTAM
ADDS - METARS form results

(0236 UTC 19 September 2019)
Data provider http://aviationweather.gov/metar/data/
 
METAR text: LHSM 190215Z AUTO 32004KT CAVOK 07/06 Q1024
Conditions at: LHSM (BALATON , HU) observed 0215 UTC 19 September 2019
Temperature: 7.0°C (45°F)
Dewpoint: 6.0°C (43°F) [RH = 93%]
Pressure (altimeter): 30.24 inches Hg (1024.0 mb)
Winds: from the NW (320 degrees) at 5 MPH (4 knots; 2.1 m/s)
Visibility: 6 or more miles (10+ km)
Ceiling: ceiling and visibility are OK
Clouds: unknown
Weather: no significant weather observed at this time

METAR text: LHSM 190145Z AUTO 32004KT CAVOK 07/07 Q1023
Conditions at: LHSM (BALATON , HU) observed 0145 UTC 19 September 2019
Temperature: 7.0°C (45°F)
Dewpoint: 7.0°C (45°F) [RH = 100%]
Pressure (altimeter): 30.21 inches Hg (1023.0 mb)
Winds: from the NW (320 degrees) at 5 MPH (4 knots; 2.1 m/s)
Visibility: 6 or more miles (10+ km)
Ceiling: ceiling and visibility are OK
Clouds: unknown
Weather: no significant weather observed at this time